createdAt,value
2019-03-10T00:03:44.957Z,12.12
2019-03-10T00:08:50.319Z,12.17
2019-03-10T00:13:55.695Z,12.22
2019-03-10T00:19:01.092Z,12.26
2019-03-10T00:24:06.497Z,12.31
2019-03-10T00:29:11.971Z,12.34
2019-03-10T00:34:17.483Z,12.33
2019-03-10T00:40:00.705Z,12.33
2019-03-10T00:45:50.453Z,12.31
2019-03-10T00:51:48.376Z,12.32
2019-03-10T00:56:53.766Z,12.27
2019-03-10T01:01:59.214Z,12.24
2019-03-10T01:07:04.575Z,12.21
2019-03-10T01:12:10.117Z,12.20
2019-03-10T01:17:15.493Z,12.19
2019-03-10T01:22:20.960Z,12.19
2019-03-10T01:27:26.315Z,12.17
2019-03-10T01:33:12.301Z,12.16
2019-03-10T01:38:17.815Z,12.12
2019-03-10T01:43:23.190Z,12.11
2019-03-10T01:48:28.615Z,12.11
2019-03-10T01:53:34.000Z,12.10
2019-03-10T01:58:39.400Z,12.09
2019-03-10T02:03:44.763Z,12.08
2019-03-10T02:08:50.162Z,12.08
2019-03-10T02:13:55.538Z,12.09
2019-03-10T02:19:00.941Z,12.09
2019-03-10T02:24:06.326Z,12.10
2019-03-10T02:29:11.699Z,12.06
2019-03-10T02:34:17.074Z,12.06
2019-03-10T02:39:22.448Z,12.06
2019-03-10T02:44:27.851Z,12.07
2019-03-10T02:49:33.238Z,12.09
2019-03-10T02:54:38.671Z,12.10
2019-03-10T02:59:44.142Z,12.11
2019-03-10T03:04:49.625Z,12.10
2019-03-10T03:09:55.290Z,12.06
2019-03-10T03:15:00.696Z,11.99
2019-03-10T03:20:06.437Z,11.94
2019-03-10T03:25:11.854Z,11.89
2019-03-10T03:30:17.506Z,11.86
2019-03-10T03:36:00.226Z,11.85
2019-03-10T03:41:09.885Z,11.78
2019-03-10T03:46:15.579Z,11.77
2019-03-10T03:51:21.065Z,11.77
2019-03-10T03:56:26.448Z,11.76
2019-03-10T04:01:36.040Z,11.73
2019-03-10T04:06:41.434Z,11.66
2019-03-10T04:11:46.840Z,11.66
2019-03-10T04:16:52.235Z,11.65
2019-03-10T04:21:57.600Z,11.60
2019-03-10T04:27:03.000Z,11.58
2019-03-10T04:32:08.366Z,11.55
2019-03-10T04:37:13.771Z,11.50
2019-03-10T04:42:19.165Z,11.44
2019-03-10T04:47:24.564Z,11.34
2019-03-10T04:52:29.912Z,11.24
2019-03-10T04:57:35.290Z,11.15
2019-03-10T05:02:40.668Z,11.04
2019-03-10T05:07:46.068Z,11.00
2019-03-10T05:12:51.508Z,10.99
2019-03-10T05:17:56.907Z,10.90
2019-03-10T05:23:38.414Z,10.78
2019-03-10T05:28:47.945Z,10.65
2019-03-10T05:33:53.303Z,10.54
2019-03-10T05:38:58.745Z,10.56
2019-03-10T05:44:04.161Z,10.53
2019-03-10T05:49:09.580Z,10.48
2019-03-10T05:54:14.959Z,10.33
2019-03-10T05:59:20.348Z,10.23
2019-03-10T06:04:25.711Z,10.12
2019-03-10T06:09:31.020Z,9.99
2019-03-10T06:14:36.400Z,9.90
2019-03-10T06:19:41.862Z,9.87
2019-03-10T06:24:47.171Z,9.80
2019-03-10T06:29:52.557Z,9.75
2019-03-10T06:34:58.005Z,9.74
2019-03-10T06:40:03.472Z,9.62
2019-03-10T06:45:08.870Z,9.54
2019-03-10T06:50:14.295Z,9.44
2019-03-10T06:55:19.624Z,9.48
2019-03-10T07:00:25.037Z,9.67
2019-03-10T07:05:30.673Z,9.80
2019-03-10T07:10:36.008Z,9.89
2019-03-10T07:15:41.395Z,9.97
2019-03-10T07:20:46.799Z,10.06
2019-03-10T07:26:08.086Z,10.27
2019-03-10T07:31:41.186Z,10.50
2019-03-10T07:36:57.027Z,10.61
2019-03-10T07:42:21.300Z,10.73
2019-03-10T07:47:42.406Z,10.86
2019-03-10T07:53:04.305Z,11.09
2019-03-10T07:58:31.252Z,11.20
2019-03-10T08:03:53.986Z,11.35
2019-03-10T08:09:23.177Z,11.87
2019-03-10T08:14:49.403Z,12.44
2019-03-10T08:20:31.754Z,13.55
2019-03-10T08:25:59.136Z,14.95
2019-03-10T08:31:35.082Z,16.24
2019-03-10T08:36:50.450Z,18.70
2019-03-10T08:42:20.984Z,18.62
2019-03-10T08:47:51.273Z,17.86
2019-03-10T08:53:02.173Z,17.43
2019-03-10T08:58:29.274Z,17.98
2019-03-10T09:03:52.012Z,19.56
2019-03-10T09:09:19.136Z,19.30
2019-03-10T09:14:41.614Z,18.63
2019-03-10T09:19:55.453Z,18.01
2019-03-10T09:25:14.388Z,17.48
2019-03-10T09:30:37.457Z,17.06
2019-03-10T09:36:00.475Z,16.72
2019-03-10T09:41:23.440Z,16.38
2019-03-10T09:46:37.657Z,16.22
2019-03-10T09:52:00.670Z,16.23
2019-03-10T09:57:23.696Z,16.15
2019-03-10T10:02:39.697Z,16.15
2019-03-10T10:08:25.535Z,16.53
2019-03-10T10:13:41.934Z,17.52
2019-03-10T10:18:57.501Z,18.36
2019-03-10T10:24:17.503Z,18.81
2019-03-10T10:29:50.679Z,18.87
2019-03-10T10:35:06.738Z,18.44
2019-03-10T10:40:37.198Z,17.72
2019-03-10T10:46:00.175Z,17.15
2019-03-10T10:51:33.186Z,16.45
2019-03-10T10:57:00.267Z,16.15
2019-03-10T11:02:15.028Z,16.33
2019-03-10T11:07:35.267Z,16.39
2019-03-10T11:13:11.710Z,16.30
2019-03-10T11:18:38.778Z,16.30
2019-03-10T11:24:02.442Z,16.65
2019-03-10T11:29:17.327Z,17.53
2019-03-10T11:34:39.646Z,18.20
2019-03-10T11:40:02.628Z,18.47
2019-03-10T11:45:26.574Z,18.36
2019-03-10T11:50:51.051Z,17.83
2019-03-10T11:56:13.800Z,17.26
2019-03-10T12:01:41.120Z,17.07
2019-03-10T12:07:08.526Z,17.06
2019-03-10T12:12:13.841Z,17.22
2019-03-10T12:17:19.305Z,17.40
2019-03-10T12:22:24.854Z,17.50
2019-03-10T12:27:30.324Z,17.46
2019-03-10T12:32:35.896Z,17.32
2019-03-10T12:37:41.299Z,17.06
2019-03-10T12:42:46.838Z,16.88
2019-03-10T12:47:52.287Z,16.77
2019-03-10T12:52:57.693Z,16.66
2019-03-10T12:58:03.063Z,16.43
2019-03-10T13:03:08.585Z,16.38
2019-03-10T13:08:13.963Z,16.34
2019-03-10T13:13:19.379Z,16.19
2019-03-10T13:18:24.760Z,16.27
2019-03-10T13:23:30.155Z,16.42
2019-03-10T13:28:35.589Z,16.79
2019-03-10T13:33:41.071Z,17.14
2019-03-10T13:38:46.522Z,17.35
2019-03-10T13:43:51.923Z,17.36
2019-03-10T13:48:57.337Z,17.31
2019-03-10T13:54:02.757Z,17.15
2019-03-10T13:59:08.244Z,16.88
2019-03-10T14:04:13.654Z,16.72
2019-03-10T14:09:19.107Z,16.65
2019-03-10T14:14:24.561Z,16.52
2019-03-10T14:19:30.009Z,16.36
2019-03-10T14:24:35.375Z,16.23
2019-03-10T14:29:40.835Z,16.14
2019-03-10T14:34:46.246Z,16.20
2019-03-10T14:39:51.592Z,16.11
2019-03-10T14:44:56.961Z,15.80
2019-03-10T14:50:02.368Z,15.49
2019-03-10T14:55:08.957Z,15.23
2019-03-10T15:00:18.241Z,14.97
2019-03-10T15:05:23.742Z,14.75
2019-03-10T15:10:29.333Z,14.50
2019-03-10T15:15:34.803Z,14.36
2019-03-10T15:20:40.241Z,14.20
2019-03-10T15:25:45.673Z,14.07
2019-03-10T15:30:51.078Z,13.92
2019-03-10T15:35:56.586Z,13.75
2019-03-10T15:41:01.997Z,13.63
2019-03-10T15:46:07.548Z,13.57
2019-03-10T15:51:13.226Z,13.41
2019-03-10T15:56:18.605Z,13.25
2019-03-10T16:01:24.371Z,13.13
2019-03-10T16:06:29.742Z,13.04
2019-03-10T16:11:35.201Z,13.06
2019-03-10T16:16:40.683Z,13.06
2019-03-10T16:21:46.117Z,13.09
2019-03-10T16:26:51.664Z,13.08
2019-03-10T16:31:57.177Z,12.99
2019-03-10T16:37:02.541Z,12.80
2019-03-10T16:42:07.976Z,12.65
2019-03-10T16:47:13.424Z,12.55
2019-03-10T16:52:18.840Z,12.47
2019-03-10T16:57:25.010Z,12.31
2019-03-10T17:02:30.429Z,12.12
2019-03-10T17:07:35.967Z,12.06
2019-03-10T17:12:41.539Z,12.00
2019-03-10T17:17:47.002Z,11.89
2019-03-10T17:22:52.402Z,11.78
2019-03-10T17:27:58.108Z,11.73
2019-03-10T17:33:03.707Z,11.68
2019-03-10T17:38:11.072Z,11.60
2019-03-10T17:43:16.486Z,11.41
2019-03-10T17:48:21.923Z,11.32
2019-03-10T17:53:27.460Z,11.31
2019-03-10T17:58:34.016Z,11.29
2019-03-10T18:03:39.713Z,11.23
2019-03-10T18:08:45.108Z,11.08
2019-03-10T18:13:50.490Z,10.93
2019-03-10T18:18:55.891Z,10.84
2019-03-10T18:24:01.255Z,10.74
2019-03-10T18:29:06.639Z,10.63
2019-03-10T18:34:12.007Z,10.50
2019-03-10T18:39:17.375Z,10.36
2019-03-10T18:44:23.700Z,10.29
2019-03-10T18:49:29.074Z,10.29
2019-03-10T18:54:34.504Z,10.30
2019-03-10T18:59:40.164Z,10.34
2019-03-10T19:04:45.584Z,10.42
2019-03-10T19:09:51.022Z,10.44
2019-03-10T19:14:56.414Z,10.45
2019-03-10T19:20:01.913Z,10.48
2019-03-10T19:25:07.648Z,10.49
2019-03-10T19:30:15.467Z,10.49
2019-03-10T19:35:21.015Z,10.52
2019-03-10T19:40:26.392Z,10.58
2019-03-10T19:45:31.913Z,10.46
2019-03-10T19:50:37.297Z,10.06
2019-03-10T19:55:42.652Z,9.75
2019-03-10T20:00:48.096Z,9.44
2019-03-10T20:05:53.537Z,9.08
2019-03-10T20:10:58.977Z,8.72
2019-03-10T20:16:06.438Z,8.48
2019-03-10T20:21:12.152Z,8.37
2019-03-10T20:26:17.640Z,8.42
2019-03-10T20:31:23.030Z,8.56
2019-03-10T20:36:28.827Z,8.47
2019-03-10T20:41:34.344Z,8.18
2019-03-10T20:46:39.799Z,7.96
2019-03-10T20:51:45.177Z,7.77
2019-03-10T20:56:50.562Z,7.65
2019-03-10T21:01:55.952Z,7.56
2019-03-10T21:07:01.335Z,7.51
2019-03-10T21:12:06.679Z,7.44
2019-03-10T21:17:12.081Z,7.25
2019-03-10T21:22:17.486Z,7.00
2019-03-10T21:27:22.838Z,6.73
2019-03-10T21:32:28.246Z,6.51
2019-03-10T21:37:33.597Z,6.32
2019-03-10T21:42:38.966Z,6.19
2019-03-10T21:47:44.411Z,6.05
2019-03-10T21:52:49.795Z,5.98
2019-03-10T21:57:55.202Z,5.93
2019-03-10T22:03:00.755Z,5.89
2019-03-10T22:08:06.158Z,5.85
2019-03-10T22:13:11.551Z,5.83
2019-03-10T22:18:16.969Z,5.83
2019-03-10T22:23:22.369Z,5.83
2019-03-10T22:28:27.753Z,5.87
2019-03-10T22:33:33.216Z,5.93
2019-03-10T22:38:38.698Z,6.04
2019-03-10T22:43:44.083Z,6.19
2019-03-10T22:48:49.669Z,6.35
2019-03-10T22:53:55.044Z,6.47
2019-03-10T22:59:00.454Z,6.58
2019-03-10T23:04:05.837Z,6.67
2019-03-10T23:09:11.390Z,6.73
2019-03-10T23:14:16.751Z,6.77
2019-03-10T23:19:22.223Z,6.81
2019-03-10T23:24:27.594Z,6.83
2019-03-10T23:29:33.056Z,6.83
2019-03-10T23:34:38.413Z,6.85
2019-03-10T23:39:43.797Z,6.94
2019-03-10T23:44:49.194Z,7.06
2019-03-10T23:49:54.633Z,7.18
2019-03-10T23:55:00.006Z,7.30
